createdAt,value
2018-05-16T00:01:15.014Z,101001.23
2018-05-16T00:04:20.229Z,101008.91
2018-05-16T00:07:25.970Z,101007.72
2018-05-16T00:10:31.177Z,101001.70
2018-05-16T00:13:37.659Z,101001.34
2018-05-16T00:16:43.789Z,101001.77
2018-05-16T00:19:49.413Z,100998.28
2018-05-16T00:22:54.638Z,101000.28
2018-05-16T00:26:01.736Z,100999.81
2018-05-16T00:29:06.932Z,101005.73
2018-05-16T00:32:12.586Z,100998.42
2018-05-16T00:35:18.598Z,100997.95
2018-05-16T00:38:25.371Z,100990.39
2018-05-16T00:41:31.106Z,100985.84
2018-05-16T00:44:36.329Z,100992.80
2018-05-16T00:47:41.978Z,100992.31
2018-05-16T00:50:59.001Z,100999.64
2018-05-16T00:54:03.925Z,100992.13
2018-05-16T00:57:09.140Z,100990.06
2018-05-16T01:00:14.346Z,100986.91
2018-05-16T01:03:20.487Z,100997.73
2018-05-16T01:06:26.250Z,100995.97
2018-05-16T01:09:31.998Z,100994.49
2018-05-16T01:12:38.113Z,100991.08
2018-05-16T01:15:44.167Z,100982.63
2018-05-16T01:18:50.088Z,100981.91
2018-05-16T01:21:56.129Z,100984.27
2018-05-16T01:25:02.275Z,100980.48
2018-05-16T01:28:08.655Z,100976.65
2018-05-16T01:31:14.716Z,100970.28
2018-05-16T01:34:20.790Z,100966.14
2018-05-16T01:37:27.661Z,100962.05
2018-05-16T01:40:33.063Z,100960.00
2018-05-16T01:43:38.205Z,100942.76
2018-05-16T01:46:43.974Z,100950.47
2018-05-16T01:49:49.728Z,100958.75
2018-05-16T01:52:55.793Z,100961.05
2018-05-16T01:56:01.013Z,100961.16
2018-05-16T01:59:06.945Z,100970.62
2018-05-16T02:02:12.670Z,100966.33
2018-05-16T02:05:17.624Z,100960.48
2018-05-16T02:08:24.577Z,100951.16
2018-05-16T02:11:30.997Z,100951.28
2018-05-16T02:14:36.821Z,100944.51
2018-05-16T02:17:42.054Z,100945.13
2018-05-16T02:20:47.254Z,100945.18
2018-05-16T02:23:53.285Z,100938.30
2018-05-16T02:26:59.628Z,100934.83
2018-05-16T02:30:05.756Z,100940.57
2018-05-16T02:33:10.974Z,100932.93
2018-05-16T02:36:16.490Z,100935.34
2018-05-16T02:39:21.807Z,100933.63
2018-05-16T02:42:26.787Z,100941.03
2018-05-16T02:45:32.003Z,100941.03
2018-05-16T02:48:37.655Z,100940.90
2018-05-16T02:51:42.850Z,100945.61
2018-05-16T02:54:48.064Z,100932.25
2018-05-16T02:57:53.809Z,100931.95
2018-05-16T03:01:00.878Z,100934.53
2018-05-16T03:04:06.535Z,100944.94
2018-05-16T03:07:11.962Z,100938.63
2018-05-16T03:10:18.088Z,100933.83
2018-05-16T03:13:23.292Z,100935.68
2018-05-16T03:16:28.506Z,100935.73
2018-05-16T03:19:35.501Z,100944.53
2018-05-16T03:22:41.161Z,100941.75
2018-05-16T03:25:47.199Z,100937.92
2018-05-16T03:28:53.317Z,100940.88
2018-05-16T03:31:59.447Z,100937.97
2018-05-16T03:35:05.286Z,100941.44
2018-05-16T03:38:11.227Z,100942.05
2018-05-16T03:41:17.353Z,100939.93
2018-05-16T03:44:23.701Z,100934.45
2018-05-16T03:47:29.050Z,100930.83
2018-05-16T03:50:35.997Z,100931.49
2018-05-16T03:53:41.868Z,100935.59
2018-05-16T03:56:47.181Z,100935.95
2018-05-16T04:00:03.037Z,100935.38
2018-05-16T04:03:19.099Z,100931.23
2018-05-16T04:06:25.457Z,100930.72
2018-05-16T04:09:30.658Z,100939.00
2018-05-16T04:12:36.524Z,100940.19
2018-05-16T04:15:41.810Z,100938.64
2018-05-16T04:18:47.012Z,100941.59
2018-05-16T04:21:52.835Z,100934.87
2018-05-16T04:24:58.053Z,100937.45
2018-05-16T04:28:03.263Z,100943.80
2018-05-16T04:31:08.525Z,100945.97
2018-05-16T04:34:14.557Z,100949.14
2018-05-16T04:37:20.769Z,100950.48
2018-05-16T04:40:26.595Z,100950.08
2018-05-16T04:43:31.801Z,100956.55
2018-05-16T04:46:37.748Z,100948.83
2018-05-16T04:49:43.902Z,100948.73
2018-05-16T04:52:49.908Z,100950.08
2018-05-16T04:55:56.110Z,100956.95
2018-05-16T04:59:02.160Z,100955.61
2018-05-16T05:02:09.219Z,100966.01
2018-05-16T05:05:14.438Z,100964.67
2018-05-16T05:08:19.654Z,100962.08
2018-05-16T05:11:24.881Z,100956.55
2018-05-16T05:14:30.108Z,100963.38
2018-05-16T05:17:35.301Z,100965.03
2018-05-16T05:20:40.513Z,100957.27
2018-05-16T05:23:47.469Z,100952.46
2018-05-16T05:26:53.293Z,100956.22
2018-05-16T05:29:59.073Z,100953.12
2018-05-16T05:33:04.058Z,100953.84
2018-05-16T05:36:09.267Z,100955.87
2018-05-16T05:39:14.479Z,100956.13
2018-05-16T05:42:20.603Z,100956.01
2018-05-16T05:45:26.239Z,100955.86
2018-05-16T05:48:32.176Z,100952.55
2018-05-16T05:51:38.051Z,100953.17
2018-05-16T05:54:43.878Z,100950.41
2018-05-16T05:57:49.501Z,100956.10
2018-05-16T06:00:55.677Z,100957.48
2018-05-16T06:04:00.915Z,100954.22
2018-05-16T06:07:06.101Z,100955.65
2018-05-16T06:10:11.299Z,100950.19
2018-05-16T06:13:16.235Z,100949.41
2018-05-16T06:16:21.645Z,100947.31
2018-05-16T06:19:26.923Z,100946.89
2018-05-16T06:22:34.164Z,100947.73
2018-05-16T06:25:39.777Z,100946.05
2018-05-16T06:28:45.387Z,100951.22
2018-05-16T06:31:51.146Z,100956.73
2018-05-16T06:34:57.294Z,100949.41
2018-05-16T06:38:02.728Z,100949.83
2018-05-16T06:41:08.550Z,100942.84
2018-05-16T06:44:13.326Z,100948.42
2018-05-16T06:47:19.390Z,100950.44
2018-05-16T06:50:25.646Z,100951.63
2018-05-16T06:53:31.478Z,100948.77
2018-05-16T06:56:38.067Z,100949.48
2018-05-16T06:59:43.693Z,100948.48
2018-05-16T07:02:48.909Z,100948.38
2018-05-16T07:05:54.138Z,100943.06
2018-05-16T07:08:59.345Z,100948.87
2018-05-16T07:12:06.095Z,100945.33
2018-05-16T07:15:11.756Z,100946.44
2018-05-16T07:18:17.742Z,100945.95
2018-05-16T07:21:23.882Z,100947.20
2018-05-16T07:24:29.899Z,100950.61
2018-05-16T07:27:36.025Z,100942.36
2018-05-16T07:30:42.066Z,100951.90
2018-05-16T07:33:48.263Z,100952.26
2018-05-16T07:36:53.475Z,100951.29
2018-05-16T07:39:58.694Z,100950.83
2018-05-16T07:43:04.835Z,100951.95
2018-05-16T07:46:10.766Z,100949.32
2018-05-16T07:49:15.963Z,100951.41
2018-05-16T07:52:21.989Z,100950.05
2018-05-16T07:55:27.956Z,100953.85
2018-05-16T07:58:33.899Z,100949.47
2018-05-16T08:01:39.836Z,100947.66
2018-05-16T08:04:45.057Z,100953.27
2018-05-16T08:07:50.278Z,100955.28
2018-05-16T08:10:55.697Z,100945.19
2018-05-16T08:14:01.422Z,100937.73
2018-05-16T08:17:06.640Z,100944.18
2018-05-16T08:20:11.886Z,100938.10
2018-05-16T08:23:17.090Z,100933.20
2018-05-16T08:26:23.213Z,100934.38
2018-05-16T08:29:28.429Z,100937.15
2018-05-16T08:32:34.657Z,100933.34
2018-05-16T08:35:40.473Z,100935.92
2018-05-16T08:38:45.679Z,100942.81
2018-05-16T08:41:51.499Z,100943.19
2018-05-16T08:44:57.629Z,100949.46
2018-05-16T08:48:03.654Z,100944.99
2018-05-16T08:51:08.866Z,100943.79
2018-05-16T08:54:14.798Z,100949.59
2018-05-16T08:57:20.421Z,100948.09
2018-05-16T09:00:27.384Z,100957.84
2018-05-16T09:03:32.577Z,100951.17
2018-05-16T09:06:37.923Z,100943.55
2018-05-16T09:09:44.237Z,100946.09
2018-05-16T09:12:50.246Z,100944.96
2018-05-16T09:15:57.389Z,100946.85
2018-05-16T09:19:03.209Z,100942.83
2018-05-16T09:22:09.356Z,100939.77
2018-05-16T09:25:15.426Z,100942.60
2018-05-16T09:28:21.753Z,100942.48
2018-05-16T09:31:27.699Z,100934.66
2018-05-16T09:34:33.914Z,100939.78
2018-05-16T09:37:39.161Z,100929.19
2018-05-16T09:40:45.294Z,100928.29
2018-05-16T09:43:50.515Z,100924.08
2018-05-16T09:46:55.939Z,100923.66
2018-05-16T09:50:01.173Z,100923.15
2018-05-16T09:53:07.242Z,100930.12
2018-05-16T09:56:13.371Z,100923.93
2018-05-16T09:59:18.586Z,100919.56
2018-05-16T10:02:23.791Z,100921.92
2018-05-16T10:05:29.019Z,100919.91
2018-05-16T10:08:34.230Z,100913.47
2018-05-16T10:11:39.162Z,100913.28
2018-05-16T10:14:45.314Z,100918.63
2018-05-16T10:17:51.533Z,100920.11
2018-05-16T10:20:57.364Z,100921.78
2018-05-16T10:24:02.575Z,100916.75
2018-05-16T10:27:07.796Z,100916.52
2018-05-16T10:30:14.835Z,100924.55
2018-05-16T10:33:20.461Z,100919.91
2018-05-16T10:36:25.440Z,100921.33
2018-05-16T10:39:31.530Z,100926.39
2018-05-16T10:42:37.676Z,100925.52
2018-05-16T10:45:43.730Z,100928.84
2018-05-16T10:48:49.844Z,100928.31
2018-05-16T10:51:55.064Z,100935.60
2018-05-16T10:55:00.774Z,100928.25
2018-05-16T10:58:06.831Z,100929.77
2018-05-16T11:01:13.163Z,100933.81
2018-05-16T11:04:18.372Z,100931.99
2018-05-16T11:07:24.003Z,100925.28
2018-05-16T11:10:29.477Z,100939.16
2018-05-16T11:13:34.870Z,100923.53
2018-05-16T11:16:40.997Z,100920.98
2018-05-16T11:19:47.047Z,100913.46
2018-05-16T11:22:52.281Z,100918.83
2018-05-16T11:25:58.310Z,100909.42
2018-05-16T11:29:04.151Z,100904.59
2018-05-16T11:32:10.175Z,100914.17
2018-05-16T11:35:16.231Z,100899.42
2018-05-16T11:38:22.262Z,100899.86
2018-05-16T11:41:28.187Z,100900.19
2018-05-16T11:44:33.573Z,100901.31
2018-05-16T11:47:40.116Z,100901.08
2018-05-16T11:50:45.743Z,100901.03
2018-05-16T11:53:51.871Z,100899.77
2018-05-16T11:56:57.503Z,100908.55
2018-05-16T12:00:03.645Z,100897.26
2018-05-16T12:03:08.851Z,100893.66
2018-05-16T12:06:13.735Z,100898.79
2018-05-16T12:09:19.946Z,100894.28
2018-05-16T12:12:26.154Z,100891.09
2018-05-16T12:15:31.985Z,100887.48
2018-05-16T12:18:38.127Z,100891.48
2018-05-16T12:21:44.294Z,100887.16
2018-05-16T12:24:49.677Z,100888.31
2018-05-16T12:27:54.898Z,100892.17
2018-05-16T12:31:00.119Z,100890.98
2018-05-16T12:34:05.342Z,100891.24
2018-05-16T12:37:11.486Z,100887.56
2018-05-16T12:40:17.618Z,100893.63
2018-05-16T12:43:37.862Z,100897.27
2018-05-16T12:46:43.043Z,100881.70
2018-05-16T12:49:48.421Z,100892.78
2018-05-16T12:52:54.053Z,100891.44
2018-05-16T12:55:59.283Z,100894.95
2018-05-16T12:59:04.528Z,100893.97
2018-05-16T13:02:10.245Z,100884.05
2018-05-16T13:05:15.466Z,100889.06
2018-05-16T13:08:21.577Z,100888.81
2018-05-16T13:11:26.801Z,100883.53
2018-05-16T13:14:32.542Z,100900.76
2018-05-16T13:17:38.501Z,100894.02
2018-05-16T13:20:44.804Z,100895.09
2018-05-16T13:23:50.043Z,100904.89
2018-05-16T13:26:55.355Z,100903.17
2018-05-16T13:30:01.681Z,100898.61
2018-05-16T13:33:07.314Z,100897.95
2018-05-16T13:36:12.619Z,100906.16
2018-05-16T13:39:18.896Z,100896.34
2018-05-16T13:42:24.341Z,100899.70
2018-05-16T13:45:29.998Z,100893.14
2018-05-16T13:48:35.369Z,100900.97
2018-05-16T13:51:40.577Z,100897.60
2018-05-16T13:54:45.789Z,100888.98
2018-05-16T13:57:51.014Z,100889.83
2018-05-16T14:00:56.867Z,100900.66
2018-05-16T14:04:02.208Z,100896.96
2018-05-16T14:07:08.305Z,100900.02
2018-05-16T14:10:13.522Z,100898.63
2018-05-16T14:13:19.169Z,100898.78
2018-05-16T14:16:24.891Z,100905.38
2018-05-16T14:19:30.114Z,100899.00
2018-05-16T14:22:35.344Z,100891.93
2018-05-16T14:25:41.081Z,100899.48
2018-05-16T14:28:46.921Z,100891.09
2018-05-16T14:31:52.665Z,100895.64
2018-05-16T14:34:58.786Z,100892.57
2018-05-16T14:38:03.754Z,100894.48
2018-05-16T14:41:09.373Z,100891.13
2018-05-16T14:44:14.586Z,100886.84
2018-05-16T14:47:19.809Z,100886.91
2018-05-16T14:50:25.541Z,100888.64
2018-05-16T14:53:30.747Z,100892.44
2018-05-16T14:56:36.955Z,100890.20
2018-05-16T14:59:42.805Z,100894.38
2018-05-16T15:02:48.007Z,100887.15
2018-05-16T15:05:53.229Z,100885.28
2018-05-16T15:08:59.376Z,100888.73
2018-05-16T15:12:04.602Z,100889.06
2018-05-16T15:15:09.992Z,100893.24
2018-05-16T15:18:16.940Z,100884.13
2018-05-16T15:21:22.594Z,100880.67
2018-05-16T15:24:28.905Z,100874.85
2018-05-16T15:27:35.576Z,100872.86
2018-05-16T15:30:40.814Z,100870.00
2018-05-16T15:33:46.628Z,100876.00
2018-05-16T15:36:52.773Z,100876.00
2018-05-16T15:39:58.074Z,100881.48
2018-05-16T15:43:03.483Z,100873.94
2018-05-16T15:46:08.702Z,100877.97
2018-05-16T15:49:14.843Z,100880.09
2018-05-16T15:52:20.879Z,100872.95
2018-05-16T15:55:27.081Z,100877.37
2018-05-16T15:58:33.842Z,100873.70
2018-05-16T16:01:39.710Z,100875.08
2018-05-16T16:04:45.537Z,100873.25
2018-05-16T16:07:51.298Z,100876.59
2018-05-16T16:10:56.551Z,100873.64
2018-05-16T16:14:02.482Z,100884.25
2018-05-16T16:17:08.613Z,100883.81
2018-05-16T16:20:14.787Z,100879.38
2018-05-16T16:23:20.009Z,100879.60
2018-05-16T16:26:26.990Z,100874.44
2018-05-16T16:29:32.341Z,100875.80
2018-05-16T16:32:37.964Z,100882.28
2018-05-16T16:35:43.203Z,100881.27
2018-05-16T16:38:50.180Z,100878.39
2018-05-16T16:41:55.521Z,100882.54
2018-05-16T16:45:01.285Z,100885.95
2018-05-16T16:48:06.485Z,100881.31
2018-05-16T16:51:12.503Z,100879.55
2018-05-16T16:54:18.639Z,100885.65
2018-05-16T16:57:24.315Z,100879.69
2018-05-16T17:00:29.552Z,100884.96
2018-05-16T17:03:35.701Z,100888.13
2018-05-16T17:06:42.377Z,100883.22
2018-05-16T17:09:48.209Z,100884.09
2018-05-16T17:12:53.417Z,100884.52
2018-05-16T17:16:00.237Z,100883.22
2018-05-16T17:19:06.066Z,100884.95
2018-05-16T17:22:12.193Z,100881.05
2018-05-16T17:25:19.225Z,100881.88
2018-05-16T17:28:25.142Z,100886.54
2018-05-16T17:31:33.874Z,100885.55
2018-05-16T17:34:40.065Z,100884.94
2018-05-16T17:37:45.093Z,100880.48
2018-05-16T17:40:50.345Z,100882.84
2018-05-16T17:43:57.133Z,100883.05
2018-05-16T17:47:03.317Z,100876.07
2018-05-16T17:50:10.238Z,100881.47
2018-05-16T17:53:15.473Z,100877.47
2018-05-16T17:56:21.433Z,100879.76
2018-05-16T17:59:26.641Z,100877.41
2018-05-16T18:02:32.535Z,100881.63
2018-05-16T18:05:37.767Z,100880.73
2018-05-16T18:08:43.677Z,100886.16
2018-05-16T18:11:49.594Z,100893.70
2018-05-16T18:15:12.670Z,100890.44
2018-05-16T18:18:18.129Z,100888.19
2018-05-16T18:21:24.070Z,100899.13
2018-05-16T18:24:29.768Z,100895.79
2018-05-16T18:27:36.447Z,100888.50
2018-05-16T18:30:42.584Z,100902.14
2018-05-16T18:33:47.813Z,100897.95
2018-05-16T18:36:53.894Z,100905.98
2018-05-16T18:39:59.322Z,100906.98
2018-05-16T18:43:04.539Z,100908.41
2018-05-16T18:46:10.732Z,100910.36
2018-05-16T18:49:16.002Z,100917.05
2018-05-16T18:52:21.363Z,100918.92
2018-05-16T18:55:27.105Z,100918.29
2018-05-16T18:58:32.814Z,100922.33
2018-05-16T19:01:38.474Z,100922.13
2018-05-16T19:04:43.821Z,100925.75
2018-05-16T19:07:49.050Z,100934.59
2018-05-16T19:10:54.482Z,100926.42
2018-05-16T19:14:00.156Z,100936.97
2018-05-16T19:17:06.126Z,100935.73
2018-05-16T19:20:11.589Z,100937.97
2018-05-16T19:23:16.912Z,100936.66
2018-05-16T19:26:21.993Z,100937.52
2018-05-16T19:29:28.120Z,100942.72
2018-05-16T19:32:33.793Z,100943.99
2018-05-16T19:35:39.609Z,100941.77
2018-05-16T19:38:46.738Z,100946.63
2018-05-16T19:41:53.535Z,100946.17
2018-05-16T19:44:58.166Z,100953.91
2018-05-16T19:48:03.412Z,100960.88
2018-05-16T19:51:09.456Z,100962.16
2018-05-16T19:54:15.668Z,100967.81
2018-05-16T19:57:21.542Z,100968.82
2018-05-16T20:00:26.778Z,100973.64
2018-05-16T20:03:32.026Z,100980.20
2018-05-16T20:06:37.246Z,100976.30
2018-05-16T20:09:42.473Z,100982.52
2018-05-16T20:12:49.489Z,100975.73
2018-05-16T20:15:55.176Z,100986.70
2018-05-16T20:19:01.702Z,100989.45
2018-05-16T20:22:07.373Z,100985.67
2018-05-16T20:25:12.611Z,100991.90
2018-05-16T20:28:18.659Z,100988.28
2018-05-16T20:31:23.537Z,100990.88
2018-05-16T20:34:30.322Z,100994.50
2018-05-16T20:37:35.998Z,100991.16
2018-05-16T20:40:41.224Z,100989.16
2018-05-16T20:43:48.301Z,100995.43
2018-05-16T20:46:53.522Z,100997.23
2018-05-16T20:49:58.760Z,100999.53
2018-05-16T20:53:04.892Z,101004.41
2018-05-16T20:56:10.649Z,101002.80
2018-05-16T20:59:17.245Z,101012.16
2018-05-16T21:02:22.513Z,101019.09
2018-05-16T21:05:29.121Z,101022.14
2018-05-16T21:08:34.482Z,101026.08
2018-05-16T21:11:41.204Z,101026.03
2018-05-16T21:14:47.348Z,101022.93
2018-05-16T21:17:53.462Z,101022.67
2018-05-16T21:20:59.098Z,101022.97
2018-05-16T21:24:05.036Z,101026.30
2018-05-16T21:27:09.995Z,101024.53
2018-05-16T21:30:15.237Z,101025.85
2018-05-16T21:33:20.994Z,101026.41
2018-05-16T21:36:26.950Z,101032.30
2018-05-16T21:39:32.187Z,101028.14
2018-05-16T21:42:38.302Z,101025.98
2018-05-16T21:45:43.966Z,101030.11
2018-05-16T21:48:49.188Z,101030.47
2018-05-16T21:51:55.264Z,101032.64
2018-05-16T21:55:01.584Z,101032.59
2018-05-16T21:58:06.809Z,101031.56
2018-05-16T22:01:12.842Z,101032.45
2018-05-16T22:04:18.737Z,101037.29
2018-05-16T22:07:24.338Z,101029.53
2018-05-16T22:10:30.314Z,101025.75
2018-05-16T22:13:35.764Z,101022.92
2018-05-16T22:16:41.009Z,101022.91
2018-05-16T22:19:46.221Z,101027.55
2018-05-16T22:22:52.153Z,101032.54
2018-05-16T22:25:59.069Z,101034.70
2018-05-16T22:29:05.175Z,101036.23
2018-05-16T22:32:16.386Z,101037.66
2018-05-16T22:35:28.288Z,101043.98
2018-05-16T22:38:39.752Z,101051.50
2018-05-16T22:41:51.249Z,101044.34
2018-05-16T22:44:57.201Z,101044.06
2018-05-16T22:48:03.242Z,101037.17
2018-05-16T22:51:09.183Z,101044.25
2018-05-16T22:54:14.404Z,101044.25
2018-05-16T22:57:19.617Z,101040.59
2018-05-16T23:00:24.910Z,101040.55
2018-05-16T23:03:31.693Z,101037.59
2018-05-16T23:06:38.366Z,101043.66
2018-05-16T23:09:43.601Z,101041.97
2018-05-16T23:12:49.745Z,101045.56
2018-05-16T23:15:56.407Z,101039.98
2018-05-16T23:19:02.086Z,101045.77
2018-05-16T23:22:07.327Z,101049.84
2018-05-16T23:25:12.262Z,101050.42
2018-05-16T23:28:18.298Z,101052.02
2018-05-16T23:31:24.218Z,101047.20
2018-05-16T23:34:30.173Z,101045.03
2018-05-16T23:37:36.126Z,101048.91
2018-05-16T23:40:41.057Z,101057.80
2018-05-16T23:43:47.337Z,101062.56
2018-05-16T23:46:52.974Z,101056.77
2018-05-16T23:49:59.098Z,101059.75
2018-05-16T23:53:04.735Z,101051.81
2018-05-16T23:56:10.983Z,101050.98
2018-05-16T23:59:17.021Z,101048.59
